Portada
METAR-TAF:

METAR-TAF

Aeroports :

Asunción, Paraguai

latitud: 25-16S, longitud: 057-38W, altitud: 101 m

Observació

L'informe es va fer fa 57 minuts, a les 05:00 UTC
Vent 3 kt del Est/Nord-Est, variant entre Nord/Nord-Oest i Est/Sud-Est
Temperatura 21°C
Humitat 53%
Pressió 1019 hPa
Visibilitat 10 km o més
sense núvols per sota de 1500 mi sense presència de cumulonimbus.

METAR: SGAS 090500Z 07003KT 340V110 CAVOK 21/11 Q1019

Hora: 01:57 (05:57 UTC)

Pronòstic

L'informe es va fer fa 1 hora i 7 minuts, a les 04:50 UTC
Pronòstic vàlid del 09 a les 06 UTC al 10 a les 06 UTC
Vent 5 kt del Est/Sud-Est
Visibilitat 10 km o més
sense núvols per sota de 1500 mi sense presència de cumulonimbus.
Evolucionant progressivament
l' 09 a les 12 UTC al 09 a les 15 UTC
Vent 10 kt del Nord-Est

TAF: SGAS 090450Z 0906/1006 12005KT CAVOK TX33/0919Z TN19/0909Z BECMG 0912/0915 05010KT

Observacions i pronòstics meteorològics de més de 4000 aeroports (METAR i TAF).

Les estacions disponibles són els punts grocs i vermells al mapa.

Posi el ratolí al punt desitjat per veure el nom de l'estació.

Feu clic per veure les observacions i els pronòstics meteorològics.

Per canviar el mapa: feu clic els botons verds amb una creu de color negre per apropar; al botó verd amb un guió per allunyar la imatge; o en les fletxes verdes per a mapes adjacents.


METAR-TAF: